Portada
METAR-TAF:

METAR-TAF

Aeroports :

Holguín, Cuba

latitud: 20-47N, longitud: 076-19W, altitud: 106 m

Observació

L'informe es va fer fa 41 minuts, a les 04:50 UTC
Vent 4 kt del Est/Nord-Est
Temperatura 22°C
Humitat 88%
Pressió 1017 hPa
Visibilitat: 9000 m
Cel clar

METAR: MUHG 080450Z 07004KT 9000 SKC 22/20 Q1017

Hora: 01:31 (05:31 UTC)

Pronòstic

L'informe es va fer fa 6 hores i 31 minuts, a les 23:00 UTC
Pronòstic vàlid del 08 a les 00 UTC al 08 a les 24 UTC
Vent 10 kt del Nord-Est
Visibilitat: 9000 m
Escasses núvols a una alçada de 2000 ft
Evolucionant progressivament
l' 08 a les 01 UTC al 08 a les 03 UTC
Vent 3 kt amb direcció variable
Temporalment
l' 08 a les 09 UTC al 08 a les 13 UTC
Visibilitat: 5000 m
boirina
Evolucionant progressivament
l' 08 a les 15 UTC al 08 a les 17 UTC
Vent 10 kt del Est/Nord-Est

TAF: MUHG 072300Z 0800/0824 04010KT 9000 FEW020 BECMG 0801/0803 VRB03KT TEMPO 0809/0813 5000 BR BECMG 0815/0817 06010KT

Observacions i pronòstics meteorològics de més de 4000 aeroports (METAR i TAF).

Les estacions disponibles són els punts grocs i vermells al mapa.

Posi el ratolí al punt desitjat per veure el nom de l'estació.

Feu clic per veure les observacions i els pronòstics meteorològics.

Per canviar el mapa: feu clic els botons verds amb una creu de color negre per apropar; al botó verd amb un guió per allunyar la imatge; o en les fletxes verdes per a mapes adjacents.


METAR-TAF: